Time;durP1;ratioP1;P1;durP2;ratioP2;P2;SDS_P1;SDS_P2;PMS_P1;PMS_P2;Temp;Humidity;BMP_temperature;BMP_pressure;BME280_temperature;BME280_humidity;BME280_pressure;Samples;Min_cycle;Max_cycle;Signal;HPM_P1;HPM_P2
2020/12/22 00:01:11;;;;;;;19.55;10.38;;;6.60;88.40;;;4.57;89.56;96233.69;5048749;28;20671;-63
2020/12/22 00:03:37;;;;;;;24.25;12.88;;;6.60;88.60;;;4.60;90.36;96238.59;5039886;28;20032;-64
2020/12/22 00:06:03;;;;;;;25.00;14.48;;;6.70;88.60;;;4.62;89.76;96246.25;5087516;28;20047;-64
2020/12/22 00:08:28;;;;;;;34.28;17.15;;;6.70;88.80;;;4.65;90.27;96239.94;5049426;28;20036;-63
2020/12/22 00:10:54;;;;;;;30.10;16.02;;;6.70;88.80;;;4.66;90.42;96237.16;5035763;28;20048;-64
2020/12/22 00:13:19;;;;;;;31.67;17.45;;;6.70;89.10;;;4.67;89.89;96233.59;5056851;28;20068;-63
2020/12/22 00:15:45;;;;;;;26.33;15.18;;;6.70;89.30;;;4.70;89.99;96233.28;5056151;28;20042;-63
2020/12/22 00:18:11;;;;;;;15.90;10.32;;;6.70;89.20;;;4.71;91.25;96227.09;5069069;28;20039;-64
2020/12/22 00:20:37;;;;;;;13.10;8.98;;;6.70;89.60;;;4.74;90.86;96234.63;5052216;28;20098;-65
2020/12/22 00:23:03;;;;;;;11.63;6.72;;;6.80;89.70;;;4.77;90.97;96234.34;5052849;28;20036;-63
2020/12/22 00:25:28;;;;;;;11.80;6.43;;;6.80;89.80;;;4.79;90.72;96232.41;5071052;28;20032;-63
2020/12/22 00:27:54;;;;;;;8.82;5.38;;;6.90;90.00;;;4.83;90.68;96238.13;5069882;28;20060;-63
2020/12/22 00:30:20;;;;;;;9.32;5.80;;;6.80;90.00;;;4.85;91.28;96228.38;5051721;28;20047;-64
2020/12/22 00:32:45;;;;;;;9.02;5.60;;;6.90;89.90;;;4.88;91.44;96234.09;5061775;28;20052;-64
2020/12/22 00:35:11;;;;;;;9.35;5.97;;;7.00;89.80;;;4.91;91.62;96236.41;5036638;28;20389;-64
2020/12/22 00:37:36;;;;;;;10.23;5.40;;;7.00;89.80;;;4.95;90.86;96231.72;5065583;28;20024;-64
2020/12/22 00:40:03;;;;;;;10.25;5.93;;;7.10;89.60;;;4.99;90.91;96242.69;5068273;28;20032;-64
2020/12/22 00:42:32;;;;;;;11.63;6.60;;;7.10;89.50;;;5.01;92.03;96240.75;5052443;28;20032;-63
2020/12/22 00:44:58;;;;;;;10.27;6.03;;;7.10;89.50;;;5.04;91.27;96240.44;5066277;28;20034;-64
2020/12/22 00:47:24;;;;;;;9.55;5.97;;;7.20;89.70;;;5.06;91.88;96238.50;5071918;28;20089;-63
2020/12/22 00:49:50;;;;;;;9.25;5.68;;;7.10;89.80;;;5.08;91.06;96239.16;5059189;28;20036;-64
2020/12/22 00:52:16;;;;;;;7.60;5.03;;;7.20;89.80;;;5.10;91.61;96245.03;5052036;28;20046;-63
2020/12/22 00:54:42;;;;;;;8.43;5.03;;;7.10;89.90;;;5.11;92.10;96238.84;5051933;28;20035;-64
2020/12/22 00:57:07;;;;;;;8.55;4.78;;;7.10;89.90;;;5.12;91.30;96227.44;5057959;28;20043;-64
2020/12/22 00:59:35;;;;;;;10.00;5.43;;;7.20;89.70;;;5.14;92.01;96235.94;5071356;28;20024;-63
2020/12/22 01:02:05;;;;;;;6.95;4.72;;;7.20;89.70;;;5.15;91.54;96241.00;5053084;28;20028;-64
2020/12/22 01:04:31;;;;;;;8.50;4.43;;;7.20;89.90;;;5.19;91.32;96254.53;5055239;28;20485;-63
2020/12/22 01:09:26;;;;;;;7.85;4.55;;;7.20;89.90;;;5.19;91.45;96239.72;5058417;28;20245;-71
2020/12/22 01:11:51;;;;;;;6.05;3.75;;;7.20;90.10;;;5.22;92.03;96238.63;5057737;28;20033;-70
2020/12/22 01:14:17;;;;;;;6.85;3.92;;;7.30;90.30;;;5.25;92.04;96237.50;5021330;28;20123;-71
2020/12/22 01:16:43;;;;;;;8.38;3.88;;;7.30;90.30;;;5.26;91.47;96239.94;5049394;28;20044;-70
2020/12/22 01:19:08;;;;;;;6.75;3.40;;;7.20;90.40;;;5.28;91.61;96231.97;5008633;28;20033;-70
2020/12/22 01:21:34;;;;;;;5.95;4.05;;;7.20;90.40;;;5.29;91.99;96244.03;5024870;28;20052;-70
2020/12/22 01:24:00;;;;;;;6.93;3.83;;;7.30;90.50;;;5.30;91.72;96243.88;5031910;28;20045;-70
2020/12/22 01:26:26;;;;;;;6.03;4.00;;;7.40;90.50;;;5.33;92.40;96246.19;4999005;28;20044;-70
2020/12/22 01:28:55;;;;;;;7.78;4.32;;;7.40;90.40;;;5.35;92.08;96244.22;5046529;28;20040;-70
2020/12/22 01:31:28;;;;;;;7.65;4.20;;;7.50;90.20;;;5.37;92.51;96242.28;5007839;28;20215;-70
2020/12/22 01:33:54;;;;;;;7.60;4.75;;;7.40;90.40;;;5.38;92.47;96233.50;5012743;28;20108;-70
2020/12/22 01:36:20;;;;;;;7.32;4.57;;;7.40;90.50;;;5.41;91.94;96233.19;5025095;28;20180;-70
2020/12/22 01:38:46;;;;;;;6.80;4.60;;;7.50;90.40;;;5.42;92.02;96229.59;5031144;28;20748;-70
2020/12/22 01:41:12;;;;;;;7.00;4.50;;;7.50;90.70;;;5.43;92.01;96226.06;5002078;28;20095;-70
2020/12/22 01:43:38;;;;;;;9.35;5.18;;;7.50;90.60;;;5.47;91.69;96222.16;5011602;28;20017;-70
2020/12/22 01:46:04;;;;;;;8.13;4.90;;;7.50;90.80;;;5.49;92.70;96225.44;5038006;28;20040;-70
2020/12/22 01:48:29;;;;;;;7.28;4.75;;;7.50;90.80;;;5.50;92.62;96215.81;5013825;28;20064;-70
2020/12/22 01:50:55;;;;;;;7.03;4.57;;;7.60;90.90;;;5.53;92.08;96220.72;5028570;28;20440;-71
2020/12/22 01:53:20;;;;;;;8.20;5.07;;;7.60;90.70;;;5.54;91.79;96223.16;5031143;28;20401;-70
2020/12/22 01:55:46;;;;;;;8.55;5.90;;;7.60;90.80;;;5.56;92.34;96214.38;5040466;28;20522;-70
2020/12/22 01:58:11;;;;;;;7.50;4.72;;;7.60;90.90;;;5.57;92.62;96216.00;5039199;28;20079;-70
2020/12/22 02:00:37;;;;;;;8.50;5.13;;;7.60;91.20;;;5.60;92.01;96223.50;5062200;28;20039;-70
2020/12/22 02:03:06;;;;;;;7.80;5.07;;;7.60;91.20;;;5.63;92.97;96220.59;5045616;28;20033;-71
2020/12/22 02:05:36;;;;;;;8.88;5.43;;;7.60;91.10;;;5.64;92.83;96222.22;5027592;28;20544;-70
2020/12/22 02:08:02;;;;;;;9.63;5.60;;;7.60;91.20;;;5.67;93.01;96227.16;5010744;28;20034;-70
2020/12/22 02:10:28;;;;;;;10.00;5.50;;;7.60;91.10;;;5.68;92.36;96213.13;5044356;28;20160;-70
2020/12/22 02:12:53;;;;;;;8.07;5.18;;;7.70;91.20;;;5.71;92.17;96207.59;5027304;28;20145;-69
2020/12/22 02:15:19;;;;;;;8.75;5.20;;;7.70;91.20;;;5.71;92.52;96190.16;5027439;28;20088;-70
2020/12/22 02:17:45;;;;;;;8.88;5.18;;;7.70;91.10;;;5.73;92.55;96185.59;5027496;28;20029;-71
2020/12/22 02:20:11;;;;;;;10.93;4.80;;;7.80;91.30;;;5.76;93.02;96189.66;5027550;28;20041;-70
2020/12/22 02:22:36;;;;;;;7.18;4.60;;;7.70;91.20;;;5.80;93.45;96191.00;5011106;28;20456;-70
2020/12/22 02:25:03;;;;;;;6.65;4.50;;;7.80;91.40;;;5.81;93.30;96184.78;5041935;28;20285;-73
2020/12/22 02:27:30;;;;;;;6.75;4.72;;;7.90;91.40;;;5.85;92.70;96188.72;5018716;28;20478;-71
2020/12/22 02:29:56;;;;;;;8.35;4.03;;;7.90;91.40;;;5.88;93.14;96192.81;4994630;28;20117;-70
2020/12/22 02:32:21;;;;;;;7.70;4.43;;;8.00;91.10;;;5.91;93.07;96195.16;5042410;28;20120;-70
2020/12/22 02:34:48;;;;;;;5.75;3.78;;;8.00;90.90;;;5.92;93.42;96189.78;5047069;28;20037;-71
2020/12/22 02:37:19;;;;;;;6.60;3.88;;;8.00;91.00;;;5.95;93.14;96189.47;5037807;28;20509;-70
2020/12/22 02:39:45;;;;;;;7.13;4.00;;;8.10;90.80;;;5.95;93.16;96179.00;5011627;28;20045;-70
2020/12/22 02:42:10;;;;;;;6.80;3.88;;;8.10;90.70;;;5.96;93.10;96180.66;5020060;28;20127;-70
2020/12/22 02:44:36;;;;;;;6.15;3.85;;;8.20;90.60;;;6.01;92.55;96177.56;5030531;28;20063;-70
2020/12/22 02:47:01;;;;;;;8.40;4.07;;;8.20;90.60;;;6.01;93.73;96191.44;5040550;28;20111;-70
2020/12/22 02:49:27;;;;;;;6.15;3.85;;;8.20;90.50;;;6.02;92.80;96190.44;5035343;28;20123;-70
2020/12/22 02:51:52;;;;;;;5.28;3.50;;;8.10;90.60;;;6.05;93.74;96191.94;5038987;28;20044;-70
2020/12/22 02:54:18;;;;;;;4.68;3.47;;;8.20;90.30;;;6.05;93.22;96173.66;5047955;28;20051;-70
2020/12/22 02:56:44;;;;;;;6.15;3.45;;;8.20;90.20;;;6.07;92.90;96179.53;5049140;28;20059;-70
2020/12/22 02:59:10;;;;;;;7.55;4.30;;;8.30;90.30;;;6.06;92.84;96172.66;5065955;28;20033;-70
2020/12/22 03:01:39;;;;;;;6.97;4.28;;;8.30;90.20;;;6.08;92.96;96173.31;5042074;28;20060;-70
2020/12/22 03:04:05;;;;;;;7.75;4.30;;;8.20;90.40;;;6.09;93.36;96167.13;4998633;28;20124;-70
2020/12/22 03:06:30;;;;;;;8.15;4.18;;;8.20;90.50;;;6.09;92.95;96160.09;5043077;28;20128;-70
2020/12/22 03:08:56;;;;;;;6.53;4.18;;;8.20;90.30;;;6.08;93.42;96162.88;5014053;28;20041;-70
2020/12/22 03:11:22;;;;;;;7.80;4.07;;;8.20;90.30;;;6.09;93.64;96178.38;5013946;28;20113;-70
2020/12/22 03:13:47;;;;;;;5.32;3.63;;;8.30;90.10;;;6.08;93.43;96174.13;5030840;28;20034;-70
2020/12/22 03:16:16;;;;;;;6.60;3.67;;;8.30;89.90;;;6.11;92.64;96199.97;5047089;28;20416;-70
2020/12/22 03:18:41;;;;;;;6.50;3.85;;;8.40;89.90;;;6.12;93.38;96213.84;5030148;28;20464;-70
2020/12/22 03:21:07;;;;;;;6.78;4.00;;;8.40;89.80;;;6.13;92.83;96216.28;5031714;28;20044;-70
2020/12/22 03:23:33;;;;;;;6.20;4.18;;;8.40;89.60;;;6.13;92.91;96203.22;5030815;28;20036;-71
2020/12/22 03:25:58;;;;;;;14.15;8.80;;;8.40;89.80;;;6.14;93.44;96210.09;5048610;28;20529;-70
2020/12/22 03:28:24;;;;;;;10.88;6.85;;;8.40;89.60;;;6.16;93.09;96196.06;5046317;28;20514;-71
2020/12/22 03:30:49;;;;;;;8.23;4.32;;;8.40;89.80;;;6.21;93.38;96199.00;5017701;28;20760;-70
2020/12/22 03:33:15;;;;;;;4.57;3.22;;;8.40;90.00;;;6.23;94.01;96194.44;5013684;28;20037;-70
2020/12/22 03:35:40;;;;;;;5.57;3.55;;;8.40;90.20;;;6.28;93.61;96192.16;5027960;28;20122;-70
2020/12/22 03:38:06;;;;;;;7.20;4.88;;;8.50;90.40;;;6.33;93.59;96187.25;5028649;28;20039;-70
2020/12/22 03:40:32;;;;;;;4.15;2.80;;;8.50;90.40;;;6.38;92.91;96171.94;5049519;28;20044;-70
2020/12/22 03:42:57;;;;;;;4.40;2.45;;;8.60;90.20;;;6.43;93.60;96170.47;5026164;28;20147;-69
2020/12/22 03:45:23;;;;;;;4.05;2.58;;;8.50;90.40;;;6.48;93.43;96164.75;5013162;28;20508;-70
2020/12/22 03:47:49;;;;;;;3.65;2.15;;;8.60;90.50;;;6.58;92.91;96154.16;5029516;28;20036;-70
2020/12/22 03:50:14;;;;;;;5.80;2.53;;;8.70;90.40;;;6.64;93.68;96151.72;5044740;28;20556;-70
2020/12/22 03:52:40;;;;;;;3.65;2.58;;;8.70;90.70;;;6.73;93.03;96152.50;5046427;28;20041;-70
2020/12/22 03:55:05;;;;;;;3.90;2.53;;;8.80;90.60;;;6.80;93.06;96152.69;5012386;28;20121;-70
2020/12/22 03:57:31;;;;;;;3.30;2.38;;;8.90;90.70;;;6.88;92.70;96150.06;5021879;28;20085;-71
2020/12/22 03:59:57;;;;;;;3.20;2.35;;;9.00;90.60;;;6.97;93.03;96143.84;5061776;28;20033;-70
2020/12/22 04:02:22;;;;;;;3.33;2.53;;;9.10;90.50;;;7.05;92.86;96151.69;5023726;28;20114;-70
2020/12/22 04:04:48;;;;;;;4.38;2.53;;;9.10;90.20;;;7.12;92.78;96157.88;5021915;28;20056;-70
2020/12/22 04:07:13;;;;;;;4.07;2.35;;;9.20;90.10;;;7.17;93.50;96165.22;5014487;28;20112;-70
2020/12/22 04:09:39;;;;;;;4.55;2.83;;;9.20;90.00;;;7.21;93.10;96162.13;5048420;28;20033;-70
2020/12/22 04:12:04;;;;;;;6.03;4.30;;;9.20;89.70;;;7.26;92.49;96162.44;5027504;28;20103;-70
2020/12/22 04:14:30;;;;;;;3.67;2.67;;;9.30;89.70;;;7.33;92.48;96160.78;5012466;28;20405;-70
2020/12/22 04:16:55;;;;;;;3.90;2.97;;;9.40;89.50;;;7.41;92.60;96166.97;5030669;28;20037;-70
2020/12/22 04:19:21;;;;;;;3.67;2.83;;;9.40;89.30;;;7.46;91.95;96159.44;5015970;28;20507;-70
2020/12/22 04:21:47;;;;;;;3.38;2.05;;;9.40;89.10;;;7.48;92.51;96160.13;5048765;28;20112;-71
2020/12/22 04:24:12;;;;;;;2.97;2.30;;;9.50;89.20;;;7.52;92.48;96159.59;5023339;28;20136;-71
2020/12/22 04:26:38;;;;;;;3.05;2.10;;;9.50;88.80;;;7.56;91.94;96166.13;5028473;28;20398;-70
2020/12/22 04:29:04;;;;;;;3.70;2.10;;;9.60;88.80;;;7.59;92.42;96170.22;5013949;28;20045;-70
2020/12/22 04:31:29;;;;;;;3.92;2.00;;;9.60;88.70;;;7.60;91.99;96158.75;5046715;28;20368;-70
2020/12/22 04:33:56;;;;;;;4.65;2.30;;;9.60;88.50;;;7.60;92.10;96151.72;5015814;28;20029;-70
2020/12/22 04:36:22;;;;;;;3.47;2.20;;;9.60;88.40;;;7.62;91.53;96148.94;5019580;28;20052;-70
2020/12/22 04:38:48;;;;;;;3.65;1.98;;;9.60;88.30;;;7.64;92.01;96152.19;5028994;28;20037;-70
2020/12/22 04:41:15;;;;;;;2.95;2.08;;;9.60;88.40;;;7.67;91.58;96144.00;5028245;28;20033;-70
2020/12/22 04:43:41;;;;;;;3.85;1.73;;;9.60;88.40;;;7.70;91.77;96148.91;4995642;28;20026;-69
2020/12/22 04:46:06;;;;;;;2.42;1.75;;;9.60;88.40;;;7.75;91.34;96133.50;5021661;28;20037;-70
2020/12/22 04:48:37;;;;;;;2.78;1.27;;;9.60;88.30;;;7.78;91.17;96138.41;5030766;28;20041;-71
2020/12/22 04:51:08;;;;;;;1.87;1.33;;;9.70;88.00;;;7.83;91.39;96140.50;5023290;28;20382;-70
2020/12/22 04:53:33;;;;;;;4.72;1.25;;;9.70;87.70;;;7.88;90.96;96139.00;4996181;28;20040;-70
2020/12/22 04:56:04;;;;;;;2.15;1.20;;;9.80;87.70;;;7.92;91.28;96136.84;5013264;28;20045;-69
2020/12/22 04:58:30;;;;;;;;;;;9.80;87.40;;;7.97;91.15;96143.22;5057390;28;20055;-70
2020/12/22 05:00:59;;;;;;;1.38;0.90;;;9.90;87.10;;;8.01;90.52;96135.00;5035948;28;19917;-70
2020/12/22 05:03:24;;;;;;;2.85;1.38;;;9.90;87.20;;;8.05;90.97;96144.16;5031640;28;20558;-70
2020/12/22 05:05:51;;;;;;;2.13;1.08;;;9.90;87.00;;;8.09;90.54;96159.34;5043227;28;20048;-69
2020/12/22 05:08:17;;;;;;;1.38;0.80;;;10.00;86.80;;;8.13;90.42;96167.69;5027523;28;20111;-70
2020/12/22 05:10:43;;;;;;;2.00;1.10;;;10.10;86.60;;;8.17;90.44;96169.00;5047095;28;20055;-70
2020/12/22 05:13:12;;;;;;;1.80;0.93;;;10.10;86.30;;;8.22;89.71;96177.16;5030988;28;20044;-67
2020/12/22 05:15:51;;;;;;;2.22;1.30;;;10.10;86.30;;;8.24;89.88;96169.94;5017411;28;20147;-67
2020/12/22 05:18:22;;;;;;;1.80;0.95;;;10.10;86.00;;;8.27;90.11;96172.19;5033595;28;20593;-66
2020/12/22 05:20:48;;;;;;;1.40;0.68;;;10.20;85.80;;;8.30;89.94;96158.75;4989576;28;20473;-64
2020/12/22 05:23:16;;;;;;;2.10;0.80;;;10.20;85.80;;;8.34;89.74;96157.44;4992444;28;20037;-66
2020/12/22 05:25:44;;;;;;;0.95;0.60;;;10.30;85.50;;;8.40;89.35;96156.75;5027391;28;20120;-68
2020/12/22 05:28:11;;;;;;;1.23;0.63;;;10.40;85.40;;;8.44;89.69;96158.03;5038604;28;20045;-70
2020/12/22 05:30:37;;;;;;;0.95;0.50;;;10.30;85.30;;;8.50;89.73;96153.91;5026449;28;20025;-67
2020/12/22 05:33:03;;;;;;;1.02;0.68;;;10.40;84.90;;;8.54;89.05;96150.75;5023717;28;20044;-69
2020/12/22 05:35:34;;;;;;;0.60;0.40;;;10.40;84.80;;;8.58;88.66;96167.75;5024027;28;20052;-69
2020/12/22 05:38:02;;;;;;;1.10;0.70;;;10.40;84.80;;;8.62;88.64;96167.44;5029788;28;20374;-68
2020/12/22 05:40:28;;;;;;;1.55;0.68;;;10.50;84.70;;;8.65;89.24;96167.09;5046802;28;20032;-68
2020/12/22 05:42:53;;;;;;;1.42;0.63;;;10.50;84.50;;;8.70;88.68;96156.88;5012930;28;20099;-69
2020/12/22 05:45:19;;;;;;;2.03;0.50;;;10.60;84.30;;;8.73;88.66;96153.91;5029438;28;20037;-69
2020/12/22 05:47:45;;;;;;;0.60;0.50;;;10.60;84.00;;;8.78;88.66;96160.25;5045941;28;20037;-69
2020/12/22 05:50:11;;;;;;;2.95;0.70;;;10.60;84.10;;;8.81;88.23;96188.75;5046708;28;20025;-69
2020/12/22 05:52:36;;;;;;;0.88;0.50;;;10.60;83.60;;;8.86;87.64;96164.63;5022275;28;20087;-69
2020/12/22 05:55:02;;;;;;;0.65;0.43;;;10.70;83.90;;;8.88;88.02;96178.38;5005419;28;20382;-69
2020/12/22 05:57:29;;;;;;;1.52;0.70;;;10.70;83.80;;;8.91;88.08;96180.66;5042930;28;20047;-69
2020/12/22 05:59:55;;;;;;;1.15;0.40;;;10.70;83.20;;;8.92;87.66;96178.84;5036243;28;20029;-69
2020/12/22 06:02:23;;;;;;;1.02;0.50;;;10.70;83.60;;;8.94;87.10;96193.41;5041122;28;20167;-69
2020/12/22 06:04:50;;;;;;;0.90;0.50;;;10.80;83.20;;;8.95;87.26;96171.44;5027155;28;20042;-69
2020/12/22 06:07:16;;;;;;;1.52;0.60;;;10.80;83.30;;;8.95;88.11;96174.06;5009755;28;20045;-70
2020/12/22 06:09:41;;;;;;;0.85;0.45;;;10.80;83.20;;;8.97;87.41;96171.25;5009934;28;20755;-70
2020/12/22 06:12:07;;;;;;;1.30;0.50;;;10.80;82.90;;;8.98;87.58;96165.81;5028041;28;20065;-70
2020/12/22 06:14:32;;;;;;;3.40;1.95;;;10.80;83.10;;;8.96;87.60;96165.19;5013057;28;20033;-68
2020/12/22 06:17:05;;;;;;;2.10;0.57;;;10.90;82.90;;;8.99;86.35;96159.59;5018111;28;20133;-68
2020/12/22 06:19:35;;;;;;;3.10;0.50;;;10.80;82.80;;;9.00;87.27;96158.59;5009816;28;20689;-68
2020/12/22 06:22:01;;;;;;;1.00;0.40;;;10.80;82.80;;;8.99;86.78;96146.47;5021508;28;20037;-67
2020/12/22 06:24:26;;;;;;;0.60;0.43;;;10.90;82.60;;;9.02;86.80;96153.16;5047330;28;20037;-69
2020/12/22 06:27:08;;;;;;;0.40;0.30;;;10.80;82.50;;;9.04;86.17;96162.47;5041825;28;20028;-68
2020/12/22 06:29:35;;;;;;;0.63;0.40;;;10.90;82.20;;;9.06;87.00;96154.47;5066026;28;20033;-69
2020/12/22 06:32:26;;;;;;;0.52;0.30;;;10.90;82.40;;;9.08;85.40;96153.28;5046426;28;20412;-68
2020/12/22 06:34:53;;;;;;;;;;;10.90;82.00;;;9.10;85.08;96151.28;5045791;28;20135;-68
2020/12/22 06:37:40;;;;;;;1.08;0.47;;;10.80;82.10;;;9.11;85.30;96142.44;5045844;28;20007;-68
2020/12/22 06:40:07;;;;;;;0.60;0.40;;;10.90;82.30;;;9.13;86.15;96150.94;5028228;28;20041;-70
2020/12/22 06:42:45;;;;;;;0.55;0.40;;;10.90;82.10;;;9.14;85.62;96160.44;5029435;28;20504;-68
2020/12/22 06:45:30;;;;;;;1.58;0.88;;;11.00;82.10;;;9.18;85.72;96153.84;5044170;28;20186;-69
2020/12/22 06:47:56;;;;;;;2.08;1.20;;;11.00;81.90;;;9.18;86.29;96153.84;5028228;28;20112;-69
2020/12/22 06:50:37;;;;;;;0.90;0.50;;;11.00;81.90;;;9.21;85.63;96158.72;5001705;28;20520;-66
2020/12/22 06:53:04;;;;;;;1.48;0.60;;;11.00;81.50;;;9.24;86.30;96165.41;5043947;28;20171;-69
2020/12/22 06:55:49;;;;;;;1.73;0.60;;;11.10;81.70;;;9.26;85.47;96160.00;5027794;28;20038;-69
2020/12/22 06:58:44;;;;;;;1.10;0.43;;;11.10;81.60;;;9.29;84.33;96167.53;5016234;28;20075;-71
2020/12/22 07:01:32;;;;;;;1.33;0.45;;;11.10;81.40;;;9.30;83.95;96169.97;5034734;28;20453;-71
2020/12/22 07:04:20;;;;;;;0.50;0.30;;;11.10;81.40;;;9.32;84.41;96167.16;5010320;28;20034;-71
2020/12/22 07:06:57;;;;;;;0.45;0.40;;;11.20;81.30;;;9.34;85.03;96175.69;5025671;28;20620;-71
2020/12/22 07:09:27;;;;;;;1.17;0.47;;;11.10;81.50;;;9.35;84.43;96174.69;5022616;28;20123;-71
2020/12/22 07:12:07;;;;;;;0.85;0.32;;;11.20;81.30;;;9.35;84.53;96172.06;5046114;28;20456;-71
2020/12/22 07:14:33;;;;;;;2.00;0.60;;;11.20;81.10;;;9.38;85.53;96183.00;5016041;28;20068;-71
2020/12/22 07:16:59;;;;;;;0.45;0.30;;;11.20;81.10;;;9.39;85.54;96173.31;5021212;28;20034;-71
2020/12/22 07:19:29;;;;;;;0.68;0.40;;;11.30;81.10;;;9.41;85.63;96173.97;5009705;28;20461;-70
2020/12/22 07:21:59;;;;;;;0.40;0.30;;;11.20;80.90;;;9.42;85.17;96176.41;4994451;28;20037;-71
2020/12/22 07:24:26;;;;;;;0.50;0.30;;;11.30;80.90;;;9.46;85.98;96197.84;5009537;28;20040;-70
2020/12/22 07:26:52;;;;;;;0.70;0.40;;;11.40;80.80;;;9.49;85.77;96192.25;5028814;28;20477;-71
2020/12/22 07:29:18;;;;;;;1.48;0.60;;;11.40;80.60;;;9.52;84.68;96189.28;5029085;28;20112;-71
2020/12/22 07:31:45;;;;;;;2.33;0.80;;;11.40;80.50;;;9.54;84.99;96179.41;5029196;28;20040;-71
2020/12/22 07:34:10;;;;;;;1.00;0.35;;;11.50;80.30;;;9.58;85.07;96190.38;5045936;28;20407;-71
2020/12/22 07:36:36;;;;;;;0.75;0.47;;;11.50;80.30;;;9.60;84.36;96191.81;5027910;28;20033;-71
2020/12/22 07:39:21;;;;;;;1.27;0.43;;;11.50;80.10;;;9.65;84.05;96191.25;5008782;28;20025;-70
2020/12/22 07:41:47;;;;;;;4.70;0.47;;;11.50;80.00;;;9.67;84.81;96184.84;5009393;28;20068;-70
2020/12/22 07:44:17;;;;;;;1.90;0.40;;;11.60;79.80;;;9.72;83.86;96186.91;5009344;28;20026;-71
2020/12/22 07:46:45;;;;;;;0.45;0.30;;;11.50;79.80;;;9.74;83.48;96188.38;4997387;28;20128;-70
2020/12/22 07:49:12;;;;;;;0.90;0.40;;;11.60;79.90;;;9.76;84.75;96202.16;5016386;28;20040;-70
2020/12/22 07:51:48;;;;;;;0.77;0.20;;;11.60;79.60;;;9.80;83.11;96178.97;4996528;28;20416;-70
2020/12/22 07:54:14;;;;;;;0.90;0.35;;;11.70;79.60;;;9.85;83.58;96191.53;5013436;28;20034;-70
2020/12/22 07:56:41;;;;;;;3.83;0.50;;;11.70;79.20;;;9.90;84.08;96189.19;5012514;28;20080;-70
2020/12/22 07:59:09;;;;;;;3.08;1.73;;;11.70;79.40;;;9.95;83.87;96189.44;5035010;28;20036;-70
2020/12/22 08:01:45;;;;;;;0.80;0.50;;;11.80;79.20;;;9.99;82.71;96193.34;5052221;28;20400;-70
2020/12/22 08:04:20;;;;;;;2.03;0.95;;;11.90;78.90;;;10.02;83.93;96204.31;5032566;28;20033;-70
2020/12/22 08:07:03;;;;;;;1.23;0.50;;;11.90;79.20;;;10.06;82.21;96189.00;5048822;28;20114;-71
2020/12/22 08:09:32;;;;;;;2.42;1.30;;;11.90;78.60;;;10.10;83.09;96201.56;5032297;28;20047;-70
2020/12/22 08:12:10;;;;;;;1.45;0.85;;;11.90;78.70;;;10.17;83.00;96199.00;5032326;28;20068;-70
2020/12/22 08:14:39;;;;;;;1.15;0.70;;;12.00;78.40;;;10.21;82.48;96192.44;5011959;28;20025;-70
2020/12/22 08:17:19;;;;;;;1.00;0.60;;;12.10;78.10;;;10.28;81.38;96198.59;5020724;28;20084;-70
2020/12/22 08:19:44;;;;;;;0.50;0.20;;;12.10;77.80;;;10.32;83.06;96205.09;5030230;28;20526;-70
2020/12/22 08:22:13;;;;;;;1.00;0.40;;;12.20;77.80;;;10.37;82.89;96194.84;5028631;28;20041;-70
2020/12/22 08:24:39;;;;;;;2.35;0.47;;;12.30;77.60;;;10.38;83.25;96199.09;5029130;28;20044;-70
2020/12/22 08:27:04;;;;;;;0.47;0.40;;;12.30;77.60;;;10.42;82.53;96207.47;5015404;28;20034;-72
2020/12/22 08:29:30;;;;;;;1.48;0.52;;;12.30;77.50;;;10.42;83.09;96220.59;5015912;28;20125;-72
2020/12/22 08:31:59;;;;;;;3.00;0.60;;;12.30;77.60;;;10.45;81.54;96230.75;5045763;28;20455;-72
2020/12/22 08:34:25;;;;;;;1.38;0.80;;;12.40;77.40;;;10.48;83.11;96234.81;5030689;28;20056;-72
2020/12/22 08:36:50;;;;;;;1.20;0.50;;;12.30;77.40;;;10.47;82.21;96234.00;5031549;28;20279;-72
2020/12/22 08:39:26;;;;;;;0.82;0.40;;;12.40;77.30;;;10.51;80.85;96231.81;5028036;28;20469;-68
2020/12/22 08:41:56;;;;;;;2.38;0.52;;;12.40;77.50;;;10.52;81.33;96236.06;5030292;28;20047;-68
2020/12/22 08:44:23;;;;;;;3.10;0.82;;;12.30;77.30;;;10.50;81.33;96227.56;5028311;28;20033;-69
2020/12/22 08:46:49;;;;;;;3.80;1.27;;;12.40;77.10;;;10.54;82.62;96234.06;5037296;28;20083;-68
2020/12/22 08:49:24;;;;;;;1.73;0.40;;;12.40;77.10;;;10.60;80.77;96239.41;5029669;28;20040;-69
2020/12/22 08:51:50;;;;;;;0.65;0.50;;;12.50;76.30;;;10.63;81.77;96232.97;5035262;28;20057;-68
2020/12/22 08:54:16;;;;;;;0.57;0.50;;;12.60;76.70;;;10.64;82.42;96226.72;5044562;28;20401;-69
2020/12/22 08:56:41;;;;;;;1.70;0.47;;;12.50;76.30;;;10.65;81.84;96233.63;5010806;28;20847;-69
2020/12/22 08:59:08;;;;;;;1.25;0.47;;;12.60;76.20;;;10.69;81.67;96238.31;5004912;28;20033;-68
2020/12/22 09:01:45;;;;;;;0.20;0.20;;;12.60;76.10;;;10.71;79.49;96231.03;5058595;28;20029;-70
2020/12/22 09:04:11;;;;;;;0.68;0.47;;;12.60;76.00;;;10.74;81.13;96235.13;5046917;28;20119;-69
2020/12/22 09:06:47;;;;;;;4.50;1.60;;;12.60;75.90;;;10.76;79.69;96232.28;5046222;28;20568;-70
2020/12/22 09:09:17;;;;;;;1.35;0.60;;;12.70;75.70;;;10.81;80.55;96232.53;5029728;28;20179;-68
2020/12/22 09:11:44;;;;;;;0.57;0.35;;;12.70;75.60;;;10.83;80.64;96233.97;5015108;28;20721;-67
2020/12/22 09:14:16;;;;;;;2.30;0.50;;;12.70;75.30;;;10.87;80.61;96230.00;5022667;28;20081;-65
2020/12/22 09:16:56;;;;;;;1.08;0.70;;;12.80;75.60;;;10.92;79.35;96235.50;5013056;28;20452;-66
2020/12/22 09:19:39;;;;;;;1.15;0.60;;;12.80;75.10;;;11.00;80.18;96239.81;5026925;28;20034;-68
2020/12/22 09:22:04;;;;;;;0.90;0.40;;;13.00;75.10;;;11.07;81.08;96239.88;5019989;28;20111;-68
2020/12/22 09:24:31;;;;;;;0.50;0.40;;;13.10;74.60;;;11.14;81.27;96235.50;5027060;28;20129;-68
2020/12/22 09:27:11;;;;;;;1.75;0.40;;;13.10;73.80;;;11.18;78.84;96237.56;5011432;28;20112;-67
2020/12/22 09:29:39;;;;;;;1.08;0.60;;;13.20;74.40;;;11.24;79.33;96228.09;5023470;28;20037;-71
2020/12/22 09:32:06;;;;;;;0.75;0.45;;;13.10;73.60;;;11.30;80.03;96227.31;5023349;28;20432;-70
2020/12/22 09:34:33;;;;;;;0.60;0.40;;;13.10;73.90;;;11.34;78.98;96233.88;5045712;28;20049;-68
2020/12/22 09:37:00;;;;;;;1.10;0.45;;;13.20;73.70;;;11.36;78.82;96229.22;5056562;28;20119;-68
2020/12/22 09:39:27;;;;;;;0.55;0.30;;;13.10;73.90;;;11.40;79.22;96232.28;5011688;28;20026;-68
2020/12/22 09:41:53;;;;;;;1.65;0.57;;;13.20;73.70;;;11.43;79.77;96240.63;5043789;28;20029;-68
2020/12/22 09:44:19;;;;;;;0.95;0.40;;;13.30;73.50;;;11.47;79.70;96241.03;5027236;28;20048;-68
2020/12/22 09:46:49;;;;;;;1.08;0.52;;;13.40;73.40;;;11.48;78.09;96219.78;5037978;28;20041;-68
2020/12/22 09:49:15;;;;;;;0.25;0.20;;;13.30;72.90;;;11.53;78.88;96229.72;5037304;28;20120;-67
2020/12/22 09:51:40;;;;;;;1.83;0.32;;;13.40;72.90;;;11.56;78.84;96230.19;5028130;28;20453;-67
2020/12/22 09:54:06;;;;;;;1.90;0.47;;;13.50;72.30;;;11.58;78.36;96240.53;5030237;28;20037;-69
2020/12/22 09:56:31;;;;;;;0.57;0.40;;;13.50;72.30;;;11.58;79.08;96236.06;5057927;28;20033;-68
2020/12/22 09:58:58;;;;;;;0.75;0.30;;;13.40;72.80;;;11.59;78.35;96235.06;5036734;28;20382;-69
2020/12/22 10:01:25;;;;;;;0.25;0.20;;;13.40;72.50;;;11.59;77.86;96229.00;5022952;28;20025;-67
2020/12/22 10:03:50;;;;;;;1.65;0.32;;;13.40;72.70;;;11.60;78.11;96236.69;5029634;28;20069;-69
2020/12/22 10:06:21;;;;;;;1.02;0.50;;;13.40;72.50;;;11.60;76.76;96233.25;5029319;28;20033;-68
2020/12/22 10:08:47;;;;;;;2.85;1.30;;;13.40;72.80;;;11.59;77.86;96229.81;5026799;28;20029;-71
2020/12/22 10:11:13;;;;;;;0.30;0.30;;;13.30;72.60;;;11.55;78.07;96233.03;4994140;28;20041;-70
2020/12/22 10:13:39;;;;;;;0.75;0.30;;;13.30;72.80;;;11.53;77.86;96235.00;5027233;28;20060;-71
2020/12/22 10:16:09;;;;;;;2.08;0.20;;;13.20;72.90;;;11.50;76.43;96220.41;5028566;28;20037;-71
2020/12/22 10:18:35;;;;;;;1.60;0.20;;;13.20;73.30;;;11.50;78.19;96224.84;5032098;28;20409;-72
2020/12/22 10:21:04;;;;;;;3.75;0.38;;;13.10;73.00;;;11.47;77.46;96220.78;5028674;28;20105;-71
2020/12/22 10:23:30;;;;;;;0.20;0.20;;;13.10;72.90;;;11.45;77.80;96220.16;5033766;28;20040;-71
2020/12/22 10:25:55;;;;;;;1.05;0.30;;;13.10;73.10;;;11.45;77.03;96221.97;5029833;28;20047;-71
2020/12/22 10:28:21;;;;;;;0.85;0.32;;;13.10;73.00;;;11.45;78.06;96221.97;5041218;28;20112;-72
2020/12/22 10:30:46;;;;;;;0.80;0.43;;;13.10;72.90;;;11.45;76.95;96233.34;5035514;28;20100;-71
2020/12/22 10:33:12;;;;;;;0.30;0.25;;;13.10;73.20;;;11.42;77.55;96222.38;5025419;28;20561;-70